createdAt,value
2019-03-25T00:01:47.081Z,4.37
2019-03-25T00:04:14.961Z,3.60
2019-03-25T00:06:42.819Z,3.33
2019-03-25T00:09:10.774Z,4.13
2019-03-25T00:11:38.577Z,3.50
2019-03-25T00:14:06.419Z,3.93
2019-03-25T00:16:34.331Z,4.57
2019-03-25T00:19:02.263Z,4.13
2019-03-25T00:21:30.128Z,3.60
2019-03-25T00:23:58.125Z,3.67
2019-03-25T00:26:25.957Z,3.87
2019-03-25T00:28:53.859Z,3.90
2019-03-25T00:31:21.684Z,4.40
2019-03-25T00:33:49.644Z,3.70
2019-03-25T00:36:17.592Z,3.93
2019-03-25T00:38:45.443Z,4.33
2019-03-25T00:41:13.360Z,3.90
2019-03-25T00:43:41.330Z,5.17
2019-03-25T00:46:09.155Z,3.93
2019-03-25T00:48:37.043Z,4.13
2019-03-25T00:51:04.956Z,4.23
2019-03-25T00:53:32.873Z,3.70
2019-03-25T00:56:00.684Z,4.13
2019-03-25T00:58:28.484Z,4.47
2019-03-25T01:00:56.502Z,4.77
2019-03-25T01:03:24.327Z,4.70
2019-03-25T01:05:52.280Z,4.10
2019-03-25T01:08:20.298Z,4.47
2019-03-25T01:10:48.194Z,4.00
2019-03-25T01:13:16.025Z,4.53
2019-03-25T01:15:43.892Z,3.63
2019-03-25T01:18:16.742Z,3.80
2019-03-25T01:20:41.472Z,3.57
2019-03-25T01:23:09.324Z,3.80
2019-03-25T01:25:37.337Z,3.73
2019-03-25T01:28:05.191Z,3.30
2019-03-25T01:30:33.116Z,3.70
2019-03-25T01:33:01.066Z,3.77
2019-03-25T01:35:28.900Z,3.60
2019-03-25T01:37:56.869Z,4.50
2019-03-25T01:40:24.793Z,3.60
2019-03-25T01:42:52.754Z,3.30
2019-03-25T01:45:20.779Z,4.03
2019-03-25T01:47:48.647Z,3.57
2019-03-25T01:50:16.527Z,3.27
2019-03-25T01:52:44.418Z,3.90
2019-03-25T01:55:13.750Z,3.50
2019-03-25T01:57:41.891Z,3.80
2019-03-25T02:00:10.472Z,3.93
2019-03-25T02:02:38.451Z,4.40
2019-03-25T02:05:06.402Z,3.80
2019-03-25T02:07:34.335Z,4.13
2019-03-25T02:10:02.311Z,3.70
2019-03-25T02:12:30.312Z,4.33
2019-03-25T02:14:58.153Z,4.07
2019-03-25T02:17:26.035Z,3.50
2019-03-25T02:19:54.009Z,4.30
2019-03-25T02:22:21.916Z,4.63
2019-03-25T02:24:49.874Z,4.07
2019-03-25T02:27:17.824Z,3.90
2019-03-25T02:29:45.695Z,4.50
2019-03-25T02:32:13.568Z,4.10
2019-03-25T02:34:41.480Z,4.53
2019-03-25T02:37:09.353Z,4.70
2019-03-25T02:39:37.290Z,5.13
2019-03-25T02:42:05.191Z,5.37
2019-03-25T02:44:33.148Z,4.87
2019-03-25T02:47:00.993Z,4.70
2019-03-25T02:49:28.850Z,5.70
2019-03-25T02:51:56.678Z,4.60
2019-03-25T02:54:24.669Z,5.20
2019-03-25T02:56:52.491Z,5.57
2019-03-25T02:59:20.397Z,4.60
2019-03-25T03:01:48.352Z,5.70
2019-03-25T03:04:16.305Z,4.93
2019-03-25T03:06:44.185Z,4.50
2019-03-25T03:09:12.142Z,5.30
2019-03-25T03:11:40.099Z,5.27
2019-03-25T03:14:08.062Z,4.47
2019-03-25T03:16:35.985Z,5.10
2019-03-25T03:19:03.867Z,4.93
2019-03-25T03:21:31.826Z,4.77
2019-03-25T03:23:59.786Z,4.80
2019-03-25T03:26:27.735Z,4.90
2019-03-25T03:28:55.633Z,5.40
2019-03-25T03:31:23.576Z,4.70
2019-03-25T03:33:51.488Z,5.37
2019-03-25T03:36:19.361Z,5.50
2019-03-25T03:38:48.289Z,5.50
2019-03-25T03:41:16.227Z,5.47
2019-03-25T03:43:44.143Z,5.73
2019-03-25T03:46:12.019Z,6.17
2019-03-25T03:48:40.049Z,6.97
2019-03-25T03:51:07.983Z,6.63
2019-03-25T03:53:36.231Z,6.63
2019-03-25T03:56:12.622Z,6.43
2019-03-25T03:58:34.442Z,6.87
2019-03-25T04:01:02.469Z,6.80
2019-03-25T04:03:30.509Z,7.43
2019-03-25T04:05:58.866Z,7.37
2019-03-25T04:08:26.773Z,8.70
2019-03-25T04:10:54.719Z,7.90
2019-03-25T04:13:22.684Z,7.63
2019-03-25T04:15:50.547Z,7.23
2019-03-25T04:18:18.532Z,7.47
2019-03-25T04:20:46.451Z,8.37
2019-03-25T04:23:14.299Z,8.80
2019-03-25T04:25:42.227Z,7.53
2019-03-25T04:28:10.250Z,8.10
2019-03-25T04:30:38.198Z,8.20
2019-03-25T04:33:06.231Z,9.30
2019-03-25T04:35:34.170Z,8.40
2019-03-25T04:38:02.025Z,9.10
2019-03-25T04:40:29.988Z,10.00
2019-03-25T04:42:58.705Z,9.47
2019-03-25T04:45:26.546Z,10.90
2019-03-25T04:47:54.485Z,10.13
2019-03-25T04:50:22.320Z,10.90
2019-03-25T04:52:50.176Z,9.77
2019-03-25T04:55:18.050Z,10.67
2019-03-25T04:57:45.988Z,10.30
2019-03-25T05:00:14.121Z,11.27
2019-03-25T05:02:41.920Z,10.37
2019-03-25T05:05:11.130Z,10.03
2019-03-25T05:07:39.066Z,8.90
2019-03-25T05:10:07.458Z,8.87
2019-03-25T05:12:35.444Z,9.30
2019-03-25T05:15:03.880Z,9.10
2019-03-25T05:17:31.870Z,7.77
2019-03-25T05:19:59.782Z,7.50
2019-03-25T05:22:27.733Z,6.60
2019-03-25T05:24:55.623Z,6.07
2019-03-25T05:27:23.436Z,5.80
2019-03-25T05:29:51.264Z,5.57
2019-03-25T05:32:19.122Z,6.53
2019-03-25T05:34:47.022Z,5.97
2019-03-25T05:37:15.025Z,6.50
2019-03-25T05:39:43.012Z,5.70
2019-03-25T05:42:10.956Z,4.53
2019-03-25T05:44:38.812Z,4.73
2019-03-25T05:47:06.756Z,4.73
2019-03-25T05:49:34.707Z,5.17
2019-03-25T05:52:02.761Z,5.50
2019-03-25T05:54:30.791Z,4.87
2019-03-25T05:57:02.659Z,4.60
2019-03-25T05:59:28.696Z,4.90
2019-03-25T06:01:56.554Z,4.33
2019-03-25T06:04:24.559Z,5.40
2019-03-25T06:06:52.489Z,4.50
2019-03-25T06:09:20.500Z,4.73
2019-03-25T06:11:48.425Z,4.60
2019-03-25T06:14:16.494Z,4.57
2019-03-25T06:16:44.483Z,4.57
2019-03-25T06:19:12.497Z,4.63
2019-03-25T06:21:40.472Z,4.00
2019-03-25T06:24:08.777Z,4.10
2019-03-25T06:26:36.888Z,3.43
2019-03-25T06:29:04.796Z,3.57
2019-03-25T06:31:33.879Z,3.20
2019-03-25T06:34:01.845Z,3.00
2019-03-25T06:36:29.670Z,3.20
2019-03-25T06:38:57.619Z,2.90
2019-03-25T06:41:25.704Z,2.50
2019-03-25T06:43:53.773Z,2.73
2019-03-25T06:46:22.358Z,2.97
2019-03-25T06:48:50.814Z,2.40
2019-03-25T06:51:19.055Z,3.13
2019-03-25T06:53:47.233Z,2.57
2019-03-25T06:56:15.303Z,2.77
2019-03-25T06:58:43.375Z,2.83
2019-03-25T07:01:11.501Z,2.60
2019-03-25T07:03:39.908Z,2.10
2019-03-25T07:06:08.053Z,1.93
2019-03-25T07:08:36.547Z,2.30
2019-03-25T07:11:04.994Z,2.13
2019-03-25T07:13:33.425Z,2.47
2019-03-25T07:16:01.619Z,2.57
2019-03-25T07:18:29.756Z,2.27
2019-03-25T07:20:57.853Z,2.83
2019-03-25T07:23:26.016Z,2.80
2019-03-25T07:25:54.106Z,2.80
2019-03-25T07:28:22.149Z,3.33
2019-03-25T07:30:50.302Z,3.17
2019-03-25T07:33:18.506Z,2.90
2019-03-25T07:35:46.699Z,3.63
2019-03-25T07:38:14.793Z,2.97
2019-03-25T07:40:42.939Z,3.37
2019-03-25T07:43:13.664Z,11.37
2019-03-25T07:45:41.757Z,4.83
2019-03-25T07:48:09.761Z,3.87
2019-03-25T07:50:37.926Z,2.47
2019-03-25T07:53:06.089Z,4.70
2019-03-25T07:55:34.132Z,3.97
2019-03-25T07:58:04.629Z,8.10
2019-03-25T08:00:32.783Z,11.27
2019-03-25T08:03:00.862Z,3.80
2019-03-25T08:05:29.003Z,5.70
2019-03-25T08:07:57.372Z,4.80
2019-03-25T08:10:35.043Z,3.03
2019-03-25T08:13:03.292Z,3.57
2019-03-25T08:15:33.886Z,4.60
2019-03-25T08:18:03.242Z,3.47
2019-03-25T08:20:31.370Z,2.60
2019-03-25T08:23:02.317Z,4.03
2019-03-25T08:25:30.514Z,3.10
2019-03-25T08:28:00.346Z,3.20
2019-03-25T08:30:28.463Z,3.23
2019-03-25T08:32:56.469Z,3.20
2019-03-25T08:35:24.637Z,4.33
2019-03-25T08:37:52.776Z,4.03
2019-03-25T08:40:20.926Z,3.40
2019-03-25T08:42:49.076Z,3.63
2019-03-25T08:45:17.544Z,3.47
2019-03-25T08:47:45.585Z,3.00
2019-03-25T08:50:13.835Z,3.00
2019-03-25T08:52:41.901Z,3.30
2019-03-25T08:55:10.269Z,3.27
2019-03-25T08:57:38.471Z,2.73
2019-03-25T09:00:06.820Z,2.33
2019-03-25T09:02:35.072Z,2.20
2019-03-25T09:05:03.205Z,3.10
2019-03-25T09:07:31.376Z,2.70
2019-03-25T09:09:59.427Z,2.10
2019-03-25T09:12:27.548Z,2.57
2019-03-25T09:14:55.611Z,3.03
2019-03-25T09:17:23.734Z,2.57
2019-03-25T09:19:51.886Z,2.50
2019-03-25T09:22:19.942Z,2.97
2019-03-25T09:24:49.267Z,2.60
2019-03-25T09:27:17.298Z,2.90
2019-03-25T09:29:45.363Z,2.80
2019-03-25T09:32:13.424Z,2.37
2019-03-25T09:34:41.534Z,2.53
2019-03-25T09:37:09.580Z,3.10
2019-03-25T09:39:37.743Z,2.17
2019-03-25T09:42:05.807Z,2.93
2019-03-25T09:44:33.902Z,1.73
2019-03-25T09:47:02.086Z,1.90
2019-03-25T09:49:30.189Z,2.63
2019-03-25T09:51:58.269Z,2.10
2019-03-25T09:54:26.398Z,1.83
2019-03-25T09:56:54.589Z,1.90
2019-03-25T09:59:22.664Z,1.80
2019-03-25T10:01:50.852Z,2.43
2019-03-25T10:04:20.159Z,1.63
2019-03-25T10:06:48.431Z,1.90
2019-03-25T10:09:16.620Z,1.83
2019-03-25T10:11:44.821Z,2.37
2019-03-25T10:14:12.967Z,1.80
2019-03-25T10:16:41.112Z,2.10
2019-03-25T10:19:10.391Z,2.20
2019-03-25T10:21:38.703Z,1.67
2019-03-25T10:24:06.879Z,1.97
2019-03-25T10:26:35.041Z,1.63
2019-03-25T10:29:03.215Z,1.70
2019-03-25T10:31:31.519Z,2.20
2019-03-25T10:33:59.641Z,2.17
2019-03-25T10:36:27.731Z,2.60
2019-03-25T10:38:55.894Z,2.03
2019-03-25T10:41:23.955Z,2.20
2019-03-25T10:43:52.075Z,2.00
2019-03-25T10:46:20.267Z,1.60
2019-03-25T10:48:48.437Z,1.60
2019-03-25T10:51:16.572Z,2.17
2019-03-25T10:53:45.827Z,2.00
2019-03-25T10:56:13.912Z,1.97
2019-03-25T10:58:42.140Z,1.90
2019-03-25T11:01:10.378Z,2.37
2019-03-25T11:03:38.510Z,2.00
2019-03-25T11:06:06.745Z,2.10
2019-03-25T11:08:34.911Z,1.77
2019-03-25T11:11:03.589Z,2.40
2019-03-25T11:13:31.806Z,1.40
2019-03-25T11:15:59.926Z,1.40
2019-03-25T11:18:28.028Z,1.13
2019-03-25T11:20:56.134Z,1.43
2019-03-25T11:23:24.269Z,1.70
2019-03-25T11:25:52.283Z,1.60
2019-03-25T11:28:20.439Z,1.10
2019-03-25T11:30:58.660Z,0.90
2019-03-25T11:33:26.779Z,1.40
2019-03-25T11:35:54.949Z,1.20
2019-03-25T11:38:23.032Z,1.80
2019-03-25T11:40:51.196Z,1.33
2019-03-25T11:43:19.355Z,1.67
2019-03-25T11:45:47.586Z,1.47
2019-03-25T11:48:15.688Z,1.60
2019-03-25T11:50:43.792Z,1.43
2019-03-25T11:53:11.926Z,1.87
2019-03-25T11:55:39.538Z,1.60
2019-03-25T11:58:07.669Z,1.93
2019-03-25T12:00:35.706Z,2.10
2019-03-25T12:03:04.027Z,2.00
2019-03-25T12:05:32.180Z,1.50
2019-03-25T12:08:01.451Z,1.67
2019-03-25T12:10:29.582Z,1.80
2019-03-25T12:12:57.833Z,1.73
2019-03-25T12:15:26.000Z,1.90
2019-03-25T12:17:54.011Z,1.83
2019-03-25T12:20:22.170Z,1.70
2019-03-25T12:22:50.318Z,1.87
2019-03-25T12:27:46.095Z,1.63
2019-03-25T12:30:14.363Z,2.00
2019-03-25T12:32:42.519Z,1.80
2019-03-25T12:35:10.809Z,1.90
2019-03-25T12:37:38.976Z,2.00
2019-03-25T12:40:07.966Z,2.50
2019-03-25T12:42:36.384Z,2.33
2019-03-25T12:45:04.595Z,2.03
2019-03-25T12:47:32.751Z,1.90
2019-03-25T12:50:00.891Z,1.80
2019-03-25T12:52:29.034Z,1.87
2019-03-25T12:54:57.161Z,1.60
2019-03-25T12:57:25.331Z,1.47
2019-03-25T12:59:53.431Z,1.47
2019-03-25T13:02:21.501Z,1.00
2019-03-25T13:04:49.557Z,0.90
2019-03-25T13:07:17.709Z,1.00
2019-03-25T13:09:45.751Z,0.90
2019-03-25T13:12:14.141Z,0.73
2019-03-25T13:14:42.283Z,0.87
2019-03-25T13:17:10.433Z,0.60
2019-03-25T13:19:38.572Z,0.87
2019-03-25T13:22:06.583Z,1.30
2019-03-25T13:24:34.725Z,0.70
2019-03-25T13:27:02.871Z,1.00
2019-03-25T13:29:31.098Z,0.70
2019-03-25T13:31:59.313Z,0.90
2019-03-25T13:34:27.465Z,0.80
2019-03-25T13:36:55.611Z,0.93
2019-03-25T13:39:23.796Z,1.10
2019-03-25T13:41:51.938Z,1.00
2019-03-25T13:44:20.041Z,1.13
2019-03-25T13:46:48.131Z,0.93
2019-03-25T13:49:16.271Z,1.23
2019-03-25T13:51:44.419Z,1.20
2019-03-25T13:54:12.524Z,1.27
2019-03-25T13:56:40.753Z,1.90
2019-03-25T13:59:08.862Z,1.20
2019-03-25T14:01:37.005Z,1.43
2019-03-25T14:04:05.149Z,1.10
2019-03-25T14:06:33.248Z,1.30
2019-03-25T14:09:01.427Z,1.30
2019-03-25T14:11:29.995Z,1.37
2019-03-25T14:14:00.181Z,0.53
2019-03-25T14:16:28.170Z,1.20
2019-03-25T14:18:56.390Z,0.83
2019-03-25T14:21:24.544Z,1.53
2019-03-25T14:23:52.678Z,0.80
2019-03-25T14:26:20.833Z,0.80
2019-03-25T14:28:48.903Z,1.00
2019-03-25T14:31:17.059Z,0.90
2019-03-25T14:33:45.207Z,1.03
2019-03-25T14:36:13.255Z,1.67
2019-03-25T14:38:41.450Z,1.53
2019-03-25T14:41:10.729Z,1.10
2019-03-25T14:43:38.919Z,1.83
2019-03-25T14:46:06.996Z,2.00
2019-03-25T14:48:36.300Z,1.63
2019-03-25T14:51:04.350Z,2.00
2019-03-25T14:53:32.531Z,1.60
2019-03-25T14:56:00.720Z,1.63
2019-03-25T14:58:28.882Z,1.50
2019-03-25T15:00:57.067Z,1.80
2019-03-25T15:03:25.245Z,2.20
2019-03-25T15:05:53.413Z,1.90
2019-03-25T15:08:21.520Z,1.50
2019-03-25T15:10:53.784Z,1.50
2019-03-25T15:13:19.635Z,1.40
2019-03-25T15:15:47.782Z,1.50
2019-03-25T15:18:16.233Z,1.60
2019-03-25T15:20:44.511Z,1.20
2019-03-25T15:23:12.679Z,1.73
2019-03-25T15:25:40.806Z,1.70
2019-03-25T15:28:09.030Z,2.10
2019-03-25T15:30:37.160Z,1.80
2019-03-25T15:33:05.352Z,2.00
2019-03-25T15:35:33.470Z,1.70
2019-03-25T15:38:01.828Z,1.50
2019-03-25T15:40:30.142Z,1.33
2019-03-25T15:42:58.292Z,0.80
2019-03-25T15:45:45.677Z,0.80
2019-03-25T15:48:13.643Z,0.90
2019-03-25T15:50:41.801Z,0.67
2019-03-25T15:53:09.926Z,0.90
2019-03-25T15:55:38.106Z,0.90
2019-03-25T15:58:06.464Z,0.90
2019-03-25T16:00:34.920Z,0.80
2019-03-25T16:03:03.844Z,0.80
2019-03-25T16:05:31.989Z,0.90
2019-03-25T16:08:00.077Z,1.20
2019-03-25T16:10:28.240Z,0.63
2019-03-25T16:12:56.510Z,0.87
2019-03-25T16:15:41.638Z,0.60
2019-03-25T16:18:12.104Z,0.70
2019-03-25T16:20:40.297Z,0.80
2019-03-25T16:23:08.502Z,0.93
2019-03-25T16:25:36.610Z,1.13
2019-03-25T16:28:04.759Z,1.57
2019-03-25T16:30:32.950Z,1.00
2019-03-25T16:33:01.036Z,1.00
2019-03-25T16:35:29.327Z,0.90
2019-03-25T16:37:57.421Z,1.10
2019-03-25T16:40:25.624Z,0.93
2019-03-25T16:42:53.849Z,1.00
2019-03-25T16:45:42.950Z,1.10
2019-03-25T16:48:12.067Z,1.17
2019-03-25T16:50:40.221Z,1.60
2019-03-25T16:53:10.961Z,2.00
2019-03-25T16:55:39.117Z,2.03
2019-03-25T16:58:07.192Z,1.47
2019-03-25T17:00:35.587Z,1.63
2019-03-25T17:03:03.790Z,1.60
2019-03-25T17:05:32.991Z,2.47
2019-03-25T17:08:02.472Z,2.27
2019-03-25T17:10:42.822Z,2.43
2019-03-25T17:13:10.925Z,3.67
2019-03-25T17:15:39.063Z,2.50
2019-03-25T17:18:07.225Z,2.27
2019-03-25T17:20:35.371Z,2.50
2019-03-25T17:23:03.659Z,2.30
2019-03-25T17:25:31.897Z,2.33
2019-03-25T17:28:00.099Z,2.63
2019-03-25T17:30:28.355Z,2.03
2019-03-25T17:32:56.533Z,2.20
2019-03-25T17:35:24.675Z,2.03
2019-03-25T17:37:52.847Z,2.33
2019-03-25T17:40:21.054Z,2.00
2019-03-25T17:42:49.311Z,1.97
2019-03-25T17:45:19.372Z,1.93
2019-03-25T17:47:47.532Z,2.00
2019-03-25T17:50:34.822Z,1.50
2019-03-25T17:53:03.068Z,1.43
2019-03-25T17:55:31.254Z,1.90
2019-03-25T17:57:59.507Z,2.10
2019-03-25T18:01:16.094Z,1.53
2019-03-25T18:03:44.196Z,2.17
2019-03-25T18:06:12.959Z,2.07
2019-03-25T18:08:41.479Z,2.37
2019-03-25T18:11:09.773Z,2.07
2019-03-25T18:13:37.965Z,2.47
2019-03-25T18:16:06.118Z,2.10
2019-03-25T18:18:34.249Z,2.27
2019-03-25T18:21:02.348Z,2.57
2019-03-25T18:23:30.608Z,2.20
2019-03-25T18:25:58.873Z,2.20
2019-03-25T18:28:27.036Z,2.17
2019-03-25T18:30:55.214Z,2.27
2019-03-25T18:33:23.384Z,2.77
2019-03-25T18:35:51.554Z,2.67
2019-03-25T18:38:19.844Z,2.33
2019-03-25T18:40:48.430Z,2.20
2019-03-25T18:43:16.905Z,2.27
2019-03-25T18:45:45.962Z,2.70
2019-03-25T18:48:15.009Z,3.30
2019-03-25T18:50:46.325Z,2.73
2019-03-25T18:53:17.661Z,2.60
2019-03-25T18:55:45.946Z,2.50
2019-03-25T18:58:14.515Z,3.43
2019-03-25T19:00:46.535Z,2.97
2019-03-25T19:03:15.541Z,3.10
2019-03-25T19:05:47.169Z,3.40
2019-03-25T19:08:15.517Z,3.87
2019-03-25T19:10:45.372Z,2.73
2019-03-25T19:13:13.649Z,2.97
2019-03-25T19:15:42.017Z,3.20
2019-03-25T19:18:10.191Z,3.10
2019-03-25T19:20:38.374Z,2.77
2019-03-25T19:23:06.976Z,3.63
2019-03-25T19:25:36.393Z,2.77
2019-03-25T19:28:04.518Z,3.10
2019-03-25T19:30:34.750Z,2.60
2019-03-25T19:33:02.967Z,3.00
2019-03-25T19:35:31.431Z,3.27
2019-03-25T19:38:00.171Z,2.70
2019-03-25T19:40:28.952Z,2.50
2019-03-25T19:42:57.447Z,2.67
2019-03-25T19:45:25.689Z,2.23
2019-03-25T19:47:55.065Z,3.17
2019-03-25T19:50:23.339Z,2.67
2019-03-25T19:52:51.514Z,2.97
2019-03-25T19:55:19.765Z,2.17
2019-03-25T19:57:48.269Z,3.30
2019-03-25T20:00:21.051Z,2.40
2019-03-25T20:02:49.421Z,2.40
2019-03-25T20:05:17.725Z,2.60
2019-03-25T20:07:46.071Z,2.90
2019-03-25T20:10:27.796Z,2.70
2019-03-25T20:12:56.759Z,2.50
2019-03-25T20:15:25.125Z,2.47
2019-03-25T20:17:53.263Z,3.17
2019-03-25T20:20:23.918Z,3.30
2019-03-25T20:23:04.451Z,3.63
2019-03-25T20:25:32.730Z,3.63
2019-03-25T20:28:00.858Z,3.23
2019-03-25T20:30:29.094Z,4.33
2019-03-25T20:32:57.400Z,3.90
2019-03-25T20:35:25.534Z,4.13
2019-03-25T20:37:53.743Z,4.63
2019-03-25T20:40:21.902Z,4.43
2019-03-25T20:42:50.154Z,4.90
2019-03-25T20:45:18.666Z,4.67
2019-03-25T20:47:46.788Z,5.70
2019-03-25T20:50:17.955Z,5.30
2019-03-25T20:52:46.080Z,5.40
2019-03-25T20:55:16.301Z,5.23
2019-03-25T20:57:44.478Z,6.10
2019-03-25T21:00:13.276Z,6.87
2019-03-25T21:02:45.229Z,5.83
2019-03-25T21:05:12.939Z,6.37
2019-03-25T21:07:41.334Z,5.83
2019-03-25T21:10:09.782Z,7.30
2019-03-25T21:12:40.058Z,6.37
2019-03-25T21:15:08.198Z,6.43
2019-03-25T21:17:36.464Z,6.00
2019-03-25T21:20:06.019Z,6.00
2019-03-25T21:22:34.100Z,5.83
2019-03-25T21:25:02.290Z,6.30
2019-03-25T21:27:30.454Z,5.97
2019-03-25T21:29:58.684Z,5.67
2019-03-25T21:32:31.239Z,5.93
2019-03-25T21:34:59.376Z,6.47
2019-03-25T21:37:27.676Z,6.30
2019-03-25T21:39:55.805Z,5.93
2019-03-25T21:42:24.035Z,5.73
2019-03-25T21:44:53.980Z,6.03
2019-03-25T21:47:22.150Z,6.70
2019-03-25T21:49:50.390Z,7.00
2019-03-25T21:52:18.463Z,6.60
2019-03-25T21:54:46.701Z,6.73
2019-03-25T21:57:14.942Z,7.37
2019-03-25T21:59:42.972Z,6.00
2019-03-25T22:02:11.046Z,6.33
2019-03-25T22:04:39.224Z,6.60
2019-03-25T22:07:07.478Z,5.90
2019-03-25T22:09:35.667Z,6.30
2019-03-25T22:12:03.710Z,5.80
2019-03-25T22:14:31.947Z,5.63
2019-03-25T22:17:00.071Z,6.37
2019-03-25T22:19:28.283Z,6.17
2019-03-25T22:21:56.447Z,6.67
2019-03-25T22:24:24.480Z,6.73
2019-03-25T22:26:52.699Z,6.83
2019-03-25T22:29:20.900Z,5.77
2019-03-25T22:31:49.143Z,6.30
2019-03-25T22:34:17.354Z,6.30
2019-03-25T22:36:46.349Z,6.37
2019-03-25T22:39:14.501Z,7.40
2019-03-25T22:41:42.625Z,8.03
2019-03-25T22:44:10.789Z,9.37
2019-03-25T22:46:38.942Z,8.37
2019-03-25T22:49:07.054Z,8.43
2019-03-25T22:51:35.215Z,9.40
2019-03-25T22:54:03.389Z,9.67
2019-03-25T22:56:31.568Z,10.20
2019-03-25T22:58:59.682Z,10.73
2019-03-25T23:01:27.931Z,10.60
2019-03-25T23:03:55.929Z,11.20
2019-03-25T23:06:24.065Z,11.87
2019-03-25T23:08:52.271Z,13.23
2019-03-25T23:11:20.349Z,12.80
2019-03-25T23:13:48.511Z,13.00
2019-03-25T23:16:16.609Z,12.50
2019-03-25T23:18:44.767Z,12.43
2019-03-25T23:21:12.969Z,12.40
2019-03-25T23:23:41.062Z,12.10
2019-03-25T23:26:09.071Z,12.47
2019-03-25T23:28:37.153Z,13.20
2019-03-25T23:31:05.191Z,13.43
2019-03-25T23:33:33.291Z,14.17
2019-03-25T23:36:01.460Z,14.13
2019-03-25T23:38:29.513Z,13.67
2019-03-25T23:40:57.581Z,14.67
2019-03-25T23:43:25.631Z,14.23
2019-03-25T23:45:53.675Z,13.93
2019-03-25T23:48:21.810Z,15.20
2019-03-25T23:50:49.847Z,13.57
2019-03-25T23:53:18.011Z,14.00
2019-03-25T23:55:46.044Z,13.63
2019-03-25T23:58:14.213Z,14.37
